New Brunswick, NJ (08901)

6:18 PM EDT on August 30, 2014 (GMT -0400)
River Road | Change Station
CLOSE
Current Station
Personal Weather Station
Location: Highland Park, NJ
Elevation: 46 ft
Nearby Weather Stations

Elev 46 ft 40.50 °N, 74.44 °W | Updated 7 minutes ago

Overcast
Overcast
77.5 °F
Feels Like 79 °F
N
1.6
Wind Variable Wind from SSW
Gusts 3.1 mph

Today
High -- | Low -- °F
--% Chance of Precip.
Yesterday
High -- | Low -- °F
Precip. -- in
6:23 AM 7:32 PM
Waxing Crescent, 25% visible
Pressure 30.18 in
Visibility 10.0 miles
Clouds Scattered Clouds 2900 ft
Overcast 3900 ft
Heat Index 79 °F
Dew Point 67 °F
Humidity 70%
Rainfall 0.00 in
Snow Depth Not available.
UV 0 out of 12
Pollen 8.90 out of 12
Air Quality Not available.
Flu Activity Not available.
METAR KLDJ 302215Z AUTO 20005KT 10SM SCT029 OVC039 27/19 A3018 RMK AO2 T02660191

More Conditions Fewer Conditions

Pressure 30.18 in
Visibility 10.0 miles
Clouds Scattered Clouds 2900 ft
Overcast 3900 ft
Heat Index 79 °F
Dew Point 67 °F
Humidity 70%
Rainfall 0.00 in
Snow Depth Not available.
UV 0 out of 12
Pollen 8.90 out of 12
Air Quality Not available.
Flu Activity Not available.
METAR KLDJ 302215Z AUTO 20005KT 10SM SCT029 OVC039 27/19 A3018 RMK AO2 T02660191

More Conditions Fewer Conditions

10-Day Weather Forecast

Almanac

Astronomy

Aug. 30, 2014 Rise Set
Actual Time 6:23 AM EDT 7:32 PM EDT
Civil Twilight 5:54 AM EDT 8:01 PM EDT
Nautical Twilight 5:21 AM EDT 8:34 PM EDT
Astronomical Twilight 4:46 AM EDT 9:09 PM EDT
Moon 11:09 AM EDT 10:04 PM EDT
Length of Visible Light 14h 06m
Length of Day
13h 09m
Tomorrow will be 2m 34s shorter.
Waxing Crescent, 25% of the Moon is Illuminated
Today
Waxing Crescent
Sep 2
First Quarter
Sep 8
Full
Sep 15
Last Quarter
Sep 24
New

Today's Extremes

State Highs State Lows

Community

WunderPhotos

Upload Photos

1,748,657 photos uploaded!

WunderBlogs® & News

Nearby

Snow Depth

Station Depth Elevation
No new snow has been reported.

Earthquake Activity

City Distance Mag. Time & Date
No recent earthquake activity has been reported nearby.
Minimum magnitude displayed is 2.5.

Coastal Water Temperatures

Place Temperature
Sandy Hook, NJ 75.9 °F
The Battery, NY 73.9 °F
Bergen Point West Reach, NJ 75.0 °F
Kings Point, NY 73.9 °F

Nearby Weather Stations